sensor_id;sensor_type;location;lat;lon;timestamp;temperature;humidity
23560;DHT22;11958;50.836;4.438;2022-09-09T00:03:54;15.10;92.00
23560;DHT22;11958;50.836;4.438;2022-09-09T00:06:32;15.40;91.90
23560;DHT22;11958;50.836;4.438;2022-09-09T00:11:42;15.60;88.80
23560;DHT22;11958;50.836;4.438;2022-09-09T00:14:16;15.50;89.00
23560;DHT22;11958;50.836;4.438;2022-09-09T00:16:47;15.60;88.50
23560;DHT22;11958;50.836;4.438;2022-09-09T00:19:45;15.50;88.30
23560;DHT22;11958;50.836;4.438;2022-09-09T00:22:18;15.50;88.60
23560;DHT22;11958;50.836;4.438;2022-09-09T00:24:55;15.10;90.40
23560;DHT22;11958;50.836;4.438;2022-09-09T00:27:45;15.10;90.90
23560;DHT22;11958;50.836;4.438;2022-09-09T00:30:16;15.30;90.40
23560;DHT22;11958;50.836;4.438;2022-09-09T00:32:45;15.50;89.10
23560;DHT22;11958;50.836;4.438;2022-09-09T00:35:17;15.10;90.50
23560;DHT22;11958;50.836;4.438;2022-09-09T00:37:48;15.50;89.60
23560;DHT22;11958;50.836;4.438;2022-09-09T00:40:34;15.60;88.90
23560;DHT22;11958;50.836;4.438;2022-09-09T00:43:26;15.80;88.50
23560;DHT22;11958;50.836;4.438;2022-09-09T00:51:30;15.90;88.80
23560;DHT22;11958;50.836;4.438;2022-09-09T00:54:16;16.00;87.90
23560;DHT22;11958;50.836;4.438;2022-09-09T01:05:10;15.80;88.70
23560;DHT22;11958;50.836;4.438;2022-09-09T01:07:38;16.00;88.90
23560;DHT22;11958;50.836;4.438;2022-09-09T01:10:13;16.00;87.90
23560;DHT22;11958;50.836;4.438;2022-09-09T01:12:43;16.10;88.00
23560;DHT22;11958;50.836;4.438;2022-09-09T01:15:27;16.10;87.50
23560;DHT22;11958;50.836;4.438;2022-09-09T01:18:07;16.10;87.70
23560;DHT22;11958;50.836;4.438;2022-09-09T01:21:00;16.10;88.10
23560;DHT22;11958;50.836;4.438;2022-09-09T01:26:21;15.70;89.00
23560;DHT22;11958;50.836;4.438;2022-09-09T01:28:50;15.80;88.40
23560;DHT22;11958;50.836;4.438;2022-09-09T01:31:34;15.80;88.80
23560;DHT22;11958;50.836;4.438;2022-09-09T01:34:01;15.90;88.50
23560;DHT22;11958;50.836;4.438;2022-09-09T01:39:07;15.90;88.20
23560;DHT22;11958;50.836;4.438;2022-09-09T01:41:32;16.00;87.50
23560;DHT22;11958;50.836;4.438;2022-09-09T01:43:58;15.90;88.80
23560;DHT22;11958;50.836;4.438;2022-09-09T01:46:24;15.70;88.80
23560;DHT22;11958;50.836;4.438;2022-09-09T01:48:51;15.90;88.70
23560;DHT22;11958;50.836;4.438;2022-09-09T01:51:18;15.90;88.90
23560;DHT22;11958;50.836;4.438;2022-09-09T01:53:45;15.90;89.20
23560;DHT22;11958;50.836;4.438;2022-09-09T01:56:35;15.80;89.00
23560;DHT22;11958;50.836;4.438;2022-09-09T02:04:54;16.00;88.50
23560;DHT22;11958;50.836;4.438;2022-09-09T02:10:07;16.00;88.70
23560;DHT22;11958;50.836;4.438;2022-09-09T02:12:34;16.00;88.20
23560;DHT22;11958;50.836;4.438;2022-09-09T02:15:07;16.00;88.40
23560;DHT22;11958;50.836;4.438;2022-09-09T02:17:38;15.80;89.40
23560;DHT22;11958;50.836;4.438;2022-09-09T02:20:10;16.00;88.70
23560;DHT22;11958;50.836;4.438;2022-09-09T02:22:39;15.90;89.00
23560;DHT22;11958;50.836;4.438;2022-09-09T02:25:08;16.10;88.10
23560;DHT22;11958;50.836;4.438;2022-09-09T02:27:35;15.70;89.30
23560;DHT22;11958;50.836;4.438;2022-09-09T02:30:03;15.80;89.70
23560;DHT22;11958;50.836;4.438;2022-09-09T02:32:31;15.90;89.40
23560;DHT22;11958;50.836;4.438;2022-09-09T02:35:03;15.80;89.30
23560;DHT22;11958;50.836;4.438;2022-09-09T02:37:36;15.90;89.00
23560;DHT22;11958;50.836;4.438;2022-09-09T02:40:07;15.70;89.10
23560;DHT22;11958;50.836;4.438;2022-09-09T02:42:43;15.50;89.90
23560;DHT22;11958;50.836;4.438;2022-09-09T02:45:12;15.70;90.20
23560;DHT22;11958;50.836;4.438;2022-09-09T02:47:47;15.60;90.10
23560;DHT22;11958;50.836;4.438;2022-09-09T02:50:20;15.60;89.90
23560;DHT22;11958;50.836;4.438;2022-09-09T02:52:56;15.80;90.30
23560;DHT22;11958;50.836;4.438;2022-09-09T02:55:47;15.80;89.40
23560;DHT22;11958;50.836;4.438;2022-09-09T02:58:17;15.90;89.40
23560;DHT22;11958;50.836;4.438;2022-09-09T03:00:48;16.00;88.90
23560;DHT22;11958;50.836;4.438;2022-09-09T03:03:16;16.10;88.30
23560;DHT22;11958;50.836;4.438;2022-09-09T03:05:42;15.70;89.00
23560;DHT22;11958;50.836;4.438;2022-09-09T03:08:08;15.80;89.50
23560;DHT22;11958;50.836;4.438;2022-09-09T03:10:35;15.80;89.90
23560;DHT22;11958;50.836;4.438;2022-09-09T03:13:01;15.70;88.90
23560;DHT22;11958;50.836;4.438;2022-09-09T03:15:26;15.80;90.00
23560;DHT22;11958;50.836;4.438;2022-09-09T03:17:57;15.80;89.70
23560;DHT22;11958;50.836;4.438;2022-09-09T03:20:24;15.70;90.00
23560;DHT22;11958;50.836;4.438;2022-09-09T03:22:54;15.60;90.20
23560;DHT22;11958;50.836;4.438;2022-09-09T03:25:21;15.70;90.60
23560;DHT22;11958;50.836;4.438;2022-09-09T03:27:49;15.70;90.20
23560;DHT22;11958;50.836;4.438;2022-09-09T03:30:15;15.80;90.40
23560;DHT22;11958;50.836;4.438;2022-09-09T03:32:40;16.00;89.50
23560;DHT22;11958;50.836;4.438;2022-09-09T03:35:06;15.90;89.00
23560;DHT22;11958;50.836;4.438;2022-09-09T03:37:32;15.70;89.40
23560;DHT22;11958;50.836;4.438;2022-09-09T03:39:58;15.50;90.10
23560;DHT22;11958;50.836;4.438;2022-09-09T03:42:25;15.40;90.50
23560;DHT22;11958;50.836;4.438;2022-09-09T03:44:51;15.50;91.00
23560;DHT22;11958;50.836;4.438;2022-09-09T03:47:20;15.70;90.10
23560;DHT22;11958;50.836;4.438;2022-09-09T03:49:47;15.60;89.70
23560;DHT22;11958;50.836;4.438;2022-09-09T03:52:14;15.70;90.10
23560;DHT22;11958;50.836;4.438;2022-09-09T03:54:39;15.50;90.60
23560;DHT22;11958;50.836;4.438;2022-09-09T03:57:06;15.70;90.30
23560;DHT22;11958;50.836;4.438;2022-09-09T03:59:32;15.60;90.50
23560;DHT22;11958;50.836;4.438;2022-09-09T04:01:58;15.60;90.70
23560;DHT22;11958;50.836;4.438;2022-09-09T04:04:24;15.70;89.50
23560;DHT22;11958;50.836;4.438;2022-09-09T04:06:51;15.90;89.90
23560;DHT22;11958;50.836;4.438;2022-09-09T04:09:17;15.70;90.20
23560;DHT22;11958;50.836;4.438;2022-09-09T04:11:43;15.70;90.50
23560;DHT22;11958;50.836;4.438;2022-09-09T04:14:08;15.50;90.80
23560;DHT22;11958;50.836;4.438;2022-09-09T04:16:34;15.80;90.60
23560;DHT22;11958;50.836;4.438;2022-09-09T04:19:02;16.10;89.70
23560;DHT22;11958;50.836;4.438;2022-09-09T04:21:30;15.90;90.00
23560;DHT22;11958;50.836;4.438;2022-09-09T04:23:55;15.90;90.00
23560;DHT22;11958;50.836;4.438;2022-09-09T04:26:21;15.70;90.70
23560;DHT22;11958;50.836;4.438;2022-09-09T04:28:47;15.90;89.90
23560;DHT22;11958;50.836;4.438;2022-09-09T04:31:17;15.60;90.20
23560;DHT22;11958;50.836;4.438;2022-09-09T04:33:43;15.40;92.10
23560;DHT22;11958;50.836;4.438;2022-09-09T04:36:09;15.50;91.10
23560;DHT22;11958;50.836;4.438;2022-09-09T04:38:35;15.70;90.40
23560;DHT22;11958;50.836;4.438;2022-09-09T04:41:01;15.60;90.70
23560;DHT22;11958;50.836;4.438;2022-09-09T04:43:26;15.80;90.30
23560;DHT22;11958;50.836;4.438;2022-09-09T04:45:52;15.70;89.60
23560;DHT22;11958;50.836;4.438;2022-09-09T04:48:18;15.50;90.10
23560;DHT22;11958;50.836;4.438;2022-09-09T04:50:53;15.40;91.90
23560;DHT22;11958;50.836;4.438;2022-09-09T04:53:18;15.40;92.50
23560;DHT22;11958;50.836;4.438;2022-09-09T04:55:44;15.30;92.40
23560;DHT22;11958;50.836;4.438;2022-09-09T04:58:09;15.40;92.60
23560;DHT22;11958;50.836;4.438;2022-09-09T05:00:35;15.60;90.90
23560;DHT22;11958;50.836;4.438;2022-09-09T05:03:05;15.10;92.30
23560;DHT22;11958;50.836;4.438;2022-09-09T05:05:32;15.20;92.50
23560;DHT22;11958;50.836;4.438;2022-09-09T05:08:07;15.20;93.10
23560;DHT22;11958;50.836;4.438;2022-09-09T05:10:34;15.40;91.10
23560;DHT22;11958;50.836;4.438;2022-09-09T05:13:01;15.40;92.10
23560;DHT22;11958;50.836;4.438;2022-09-09T05:15:27;15.60;90.80
23560;DHT22;11958;50.836;4.438;2022-09-09T05:17:57;15.30;92.10
23560;DHT22;11958;50.836;4.438;2022-09-09T05:20:23;15.50;90.90
23560;DHT22;11958;50.836;4.438;2022-09-09T05:22:55;15.40;92.00
23560;DHT22;11958;50.836;4.438;2022-09-09T05:25:22;15.40;91.80
23560;DHT22;11958;50.836;4.438;2022-09-09T05:27:51;15.30;92.60
23560;DHT22;11958;50.836;4.438;2022-09-09T05:30:17;15.60;91.20
23560;DHT22;11958;50.836;4.438;2022-09-09T05:32:44;15.60;90.20
23560;DHT22;11958;50.836;4.438;2022-09-09T05:35:10;15.70;90.50
23560;DHT22;11958;50.836;4.438;2022-09-09T05:37:35;15.90;89.00
23560;DHT22;11958;50.836;4.438;2022-09-09T05:40:01;15.80;90.00
23560;DHT22;11958;50.836;4.438;2022-09-09T05:42:30;15.90;88.80
23560;DHT22;11958;50.836;4.438;2022-09-09T05:44:56;15.80;89.80
23560;DHT22;11958;50.836;4.438;2022-09-09T05:47:22;15.80;89.50
23560;DHT22;11958;50.836;4.438;2022-09-09T05:49:48;15.90;88.30
23560;DHT22;11958;50.836;4.438;2022-09-09T05:52:14;15.80;89.20
23560;DHT22;11958;50.836;4.438;2022-09-09T05:54:40;16.00;89.00
23560;DHT22;11958;50.836;4.438;2022-09-09T05:57:06;15.60;89.30
23560;DHT22;11958;50.836;4.438;2022-09-09T05:59:32;15.70;89.40
23560;DHT22;11958;50.836;4.438;2022-09-09T06:01:58;15.50;90.10
23560;DHT22;11958;50.836;4.438;2022-09-09T06:04:24;15.60;90.30
23560;DHT22;11958;50.836;4.438;2022-09-09T06:06:50;15.60;90.30
23560;DHT22;11958;50.836;4.438;2022-09-09T06:09:16;15.80;90.20
23560;DHT22;11958;50.836;4.438;2022-09-09T06:11:41;15.80;90.20
23560;DHT22;11958;50.836;4.438;2022-09-09T06:14:08;15.70;90.50
23560;DHT22;11958;50.836;4.438;2022-09-09T06:16:36;15.80;89.30
23560;DHT22;11958;50.836;4.438;2022-09-09T06:19:03;15.80;89.40
23560;DHT22;11958;50.836;4.438;2022-09-09T06:21:31;15.60;89.70
23560;DHT22;11958;50.836;4.438;2022-09-09T06:23:58;15.60;90.40
23560;DHT22;11958;50.836;4.438;2022-09-09T06:26:26;15.80;89.40
23560;DHT22;11958;50.836;4.438;2022-09-09T06:28:53;15.80;89.10
23560;DHT22;11958;50.836;4.438;2022-09-09T06:31:23;16.00;88.90
23560;DHT22;11958;50.836;4.438;2022-09-09T06:33:53;16.00;88.90
23560;DHT22;11958;50.836;4.438;2022-09-09T06:36:28;16.00;88.40
23560;DHT22;11958;50.836;4.438;2022-09-09T06:38:55;16.20;87.60
23560;DHT22;11958;50.836;4.438;2022-09-09T06:41:22;16.20;87.30
23560;DHT22;11958;50.836;4.438;2022-09-09T06:43:48;16.30;88.00
23560;DHT22;11958;50.836;4.438;2022-09-09T06:46:25;16.30;87.50
23560;DHT22;11958;50.836;4.438;2022-09-09T06:48:55;16.10;87.90
23560;DHT22;11958;50.836;4.438;2022-09-09T06:51:23;16.20;86.90
23560;DHT22;11958;50.836;4.438;2022-09-09T06:53:54;16.30;87.30
23560;DHT22;11958;50.836;4.438;2022-09-09T06:56:26;16.60;86.70
23560;DHT22;11958;50.836;4.438;2022-09-09T06:58:54;16.30;86.40
23560;DHT22;11958;50.836;4.438;2022-09-09T07:01:23;16.30;86.00
23560;DHT22;11958;50.836;4.438;2022-09-09T07:03:51;16.40;86.30
23560;DHT22;11958;50.836;4.438;2022-09-09T07:06:25;16.30;86.30
23560;DHT22;11958;50.836;4.438;2022-09-09T07:08:52;16.40;86.40
23560;DHT22;11958;50.836;4.438;2022-09-09T07:11:19;16.60;85.10
23560;DHT22;11958;50.836;4.438;2022-09-09T07:13:45;16.80;85.60
23560;DHT22;11958;50.836;4.438;2022-09-09T07:16:14;16.60;84.30
23560;DHT22;11958;50.836;4.438;2022-09-09T07:18:40;16.90;84.40
23560;DHT22;11958;50.836;4.438;2022-09-09T07:21:06;16.90;84.00
23560;DHT22;11958;50.836;4.438;2022-09-09T07:23:33;16.70;84.80
23560;DHT22;11958;50.836;4.438;2022-09-09T07:26:00;16.60;84.20
23560;DHT22;11958;50.836;4.438;2022-09-09T07:28:26;16.70;85.10
23560;DHT22;11958;50.836;4.438;2022-09-09T07:30:57;16.90;84.90
23560;DHT22;11958;50.836;4.438;2022-09-09T07:33:24;16.80;84.90
23560;DHT22;11958;50.836;4.438;2022-09-09T07:35:50;16.80;84.40
23560;DHT22;11958;50.836;4.438;2022-09-09T07:38:16;16.60;84.70
23560;DHT22;11958;50.836;4.438;2022-09-09T07:40:42;16.80;84.60
23560;DHT22;11958;50.836;4.438;2022-09-09T07:43:08;16.90;84.30
23560;DHT22;11958;50.836;4.438;2022-09-09T07:45:34;17.10;84.10
23560;DHT22;11958;50.836;4.438;2022-09-09T07:48:01;16.90;85.10
23560;DHT22;11958;50.836;4.438;2022-09-09T07:50:27;16.80;86.10
23560;DHT22;11958;50.836;4.438;2022-09-09T07:52:53;16.60;86.00
23560;DHT22;11958;50.836;4.438;2022-09-09T07:55:22;16.40;86.90
23560;DHT22;11958;50.836;4.438;2022-09-09T07:57:52;16.60;87.60
23560;DHT22;11958;50.836;4.438;2022-09-09T08:00:18;16.60;87.30
23560;DHT22;11958;50.836;4.438;2022-09-09T08:02:45;16.50;88.00
23560;DHT22;11958;50.836;4.438;2022-09-09T08:05:12;16.60;87.10
23560;DHT22;11958;50.836;4.438;2022-09-09T08:07:38;16.60;86.60
23560;DHT22;11958;50.836;4.438;2022-09-09T08:10:04;16.50;87.50
23560;DHT22;11958;50.836;4.438;2022-09-09T08:12:31;16.50;87.40
23560;DHT22;11958;50.836;4.438;2022-09-09T08:14:57;16.60;87.10
23560;DHT22;11958;50.836;4.438;2022-09-09T08:17:23;16.80;87.90
23560;DHT22;11958;50.836;4.438;2022-09-09T08:19:49;17.20;86.90
23560;DHT22;11958;50.836;4.438;2022-09-09T08:22:14;17.10;85.30
23560;DHT22;11958;50.836;4.438;2022-09-09T08:24:40;17.40;84.50
23560;DHT22;11958;50.836;4.438;2022-09-09T08:27:06;17.20;84.90
23560;DHT22;11958;50.836;4.438;2022-09-09T08:29:31;17.30;84.70
23560;DHT22;11958;50.836;4.438;2022-09-09T08:31:58;17.50;84.30
23560;DHT22;11958;50.836;4.438;2022-09-09T08:34:25;17.70;83.50
23560;DHT22;11958;50.836;4.438;2022-09-09T08:36:52;17.80;83.10
23560;DHT22;11958;50.836;4.438;2022-09-09T08:39:20;17.80;81.90
23560;DHT22;11958;50.836;4.438;2022-09-09T08:42:35;17.70;83.90
23560;DHT22;11958;50.836;4.438;2022-09-09T08:45:15;17.40;85.20
23560;DHT22;11958;50.836;4.438;2022-09-09T08:50:38;17.60;83.70
23560;DHT22;11958;50.836;4.438;2022-09-09T08:53:27;17.60;83.90
23560;DHT22;11958;50.836;4.438;2022-09-09T08:56:01;17.10;84.40
23560;DHT22;11958;50.836;4.438;2022-09-09T08:58:35;17.20;84.40
23560;DHT22;11958;50.836;4.438;2022-09-09T09:09:53;17.80;85.20
23560;DHT22;11958;50.836;4.438;2022-09-09T09:12:27;18.10;84.80
23560;DHT22;11958;50.836;4.438;2022-09-09T09:14:54;17.80;82.80
23560;DHT22;11958;50.836;4.438;2022-09-09T09:17:24;17.70;84.70
23560;DHT22;11958;50.836;4.438;2022-09-09T09:19:51;17.60;83.90
23560;DHT22;11958;50.836;4.438;2022-09-09T09:22:52;17.80;83.40
23560;DHT22;11958;50.836;4.438;2022-09-09T09:25:34;17.70;83.90
23560;DHT22;11958;50.836;4.438;2022-09-09T09:28:16;17.40;83.80
23560;DHT22;11958;50.836;4.438;2022-09-09T09:36:12;17.00;85.70
23560;DHT22;11958;50.836;4.438;2022-09-09T09:39:00;17.20;86.80
23560;DHT22;11958;50.836;4.438;2022-09-09T09:41:30;17.30;87.00
23560;DHT22;11958;50.836;4.438;2022-09-09T09:43:56;17.20;86.00
23560;DHT22;11958;50.836;4.438;2022-09-09T09:46:23;17.20;85.90
23560;DHT22;11958;50.836;4.438;2022-09-09T09:49:17;17.10;86.70
23560;DHT22;11958;50.836;4.438;2022-09-09T09:51:43;17.10;86.30
23560;DHT22;11958;50.836;4.438;2022-09-09T09:57:14;17.00;87.40
23560;DHT22;11958;50.836;4.438;2022-09-09T09:59:41;17.00;87.40
23560;DHT22;11958;50.836;4.438;2022-09-09T10:02:22;17.20;86.60
23560;DHT22;11958;50.836;4.438;2022-09-09T10:05:29;17.30;86.90
23560;DHT22;11958;50.836;4.438;2022-09-09T10:08:12;17.00;86.80
23560;DHT22;11958;50.836;4.438;2022-09-09T10:11:06;17.20;86.70
23560;DHT22;11958;50.836;4.438;2022-09-09T10:19:10;17.60;85.40
23560;DHT22;11958;50.836;4.438;2022-09-09T10:27:19;17.60;85.00
23560;DHT22;11958;50.836;4.438;2022-09-09T10:30:24;17.50;85.60
23560;DHT22;11958;50.836;4.438;2022-09-09T10:38:05;17.80;84.40
23560;DHT22;11958;50.836;4.438;2022-09-09T10:46:22;18.30;82.30
23560;DHT22;11958;50.836;4.438;2022-09-09T10:49:13;18.20;81.20
23560;DHT22;11958;50.836;4.438;2022-09-09T10:59:56;18.40;80.50
23560;DHT22;11958;50.836;4.438;2022-09-09T11:02:29;18.90;79.20
23560;DHT22;11958;50.836;4.438;2022-09-09T11:05:21;18.80;80.10
23560;DHT22;11958;50.836;4.438;2022-09-09T11:07:55;18.90;79.10
23560;DHT22;11958;50.836;4.438;2022-09-09T11:10:44;19.00;78.30
23560;DHT22;11958;50.836;4.438;2022-09-09T11:13:35;19.30;77.60
23560;DHT22;11958;50.836;4.438;2022-09-09T11:18:39;19.40;78.10
23560;DHT22;11958;50.836;4.438;2022-09-09T11:21:30;19.40;77.90
23560;DHT22;11958;50.836;4.438;2022-09-09T11:24:01;19.10;77.70
23560;DHT22;11958;50.836;4.438;2022-09-09T11:26:40;19.30;77.00
23560;DHT22;11958;50.836;4.438;2022-09-09T11:38:02;19.50;77.50
23560;DHT22;11958;50.836;4.438;2022-09-09T11:40:32;19.40;76.60
23560;DHT22;11958;50.836;4.438;2022-09-09T11:43:27;19.30;76.80
23560;DHT22;11958;50.836;4.438;2022-09-09T11:45:57;19.20;77.50
23560;DHT22;11958;50.836;4.438;2022-09-09T11:48:44;18.90;76.60
23560;DHT22;11958;50.836;4.438;2022-09-09T11:51:25;18.80;78.40
23560;DHT22;11958;50.836;4.438;2022-09-09T11:53:58;18.90;78.40
23560;DHT22;11958;50.836;4.438;2022-09-09T11:56:43;19.20;77.90
23560;DHT22;11958;50.836;4.438;2022-09-09T11:59:26;19.60;76.20
23560;DHT22;11958;50.836;4.438;2022-09-09T12:06:52;19.20;76.90
23560;DHT22;11958;50.836;4.438;2022-09-09T12:09:22;19.00;77.20
23560;DHT22;11958;50.836;4.438;2022-09-09T12:11:50;19.30;77.20
23560;DHT22;11958;50.836;4.438;2022-09-09T12:17:22;19.40;77.00
23560;DHT22;11958;50.836;4.438;2022-09-09T12:19:59;19.70;76.00
23560;DHT22;11958;50.836;4.438;2022-09-09T12:23:00;19.50;76.60
23560;DHT22;11958;50.836;4.438;2022-09-09T12:28:06;19.40;77.60
23560;DHT22;11958;50.836;4.438;2022-09-09T12:33:37;19.20;76.20
23560;DHT22;11958;50.836;4.438;2022-09-09T12:36:07;19.40;77.40
23560;DHT22;11958;50.836;4.438;2022-09-09T12:38:40;19.40;77.10
23560;DHT22;11958;50.836;4.438;2022-09-09T12:41:06;19.60;77.00
23560;DHT22;11958;50.836;4.438;2022-09-09T12:43:44;20.20;76.20
23560;DHT22;11958;50.836;4.438;2022-09-09T12:48:57;21.40;69.50
23560;DHT22;11958;50.836;4.438;2022-09-09T12:51:31;21.40;68.40
23560;DHT22;11958;50.836;4.438;2022-09-09T12:54:00;21.30;68.50
23560;DHT22;11958;50.836;4.438;2022-09-09T12:56:29;21.40;67.60
23560;DHT22;11958;50.836;4.438;2022-09-09T12:58:57;21.20;67.70
23560;DHT22;11958;50.836;4.438;2022-09-09T13:01:29;21.30;67.50
23560;DHT22;11958;50.836;4.438;2022-09-09T13:03:55;21.20;67.90
23560;DHT22;11958;50.836;4.438;2022-09-09T13:06:29;21.10;67.40
23560;DHT22;11958;50.836;4.438;2022-09-09T13:08:58;21.20;69.20
23560;DHT22;11958;50.836;4.438;2022-09-09T13:11:40;21.60;67.30
23560;DHT22;11958;50.836;4.438;2022-09-09T13:14:16;21.90;66.00
23560;DHT22;11958;50.836;4.438;2022-09-09T13:17:01;22.00;64.90
23560;DHT22;11958;50.836;4.438;2022-09-09T13:19:32;22.00;65.60
23560;DHT22;11958;50.836;4.438;2022-09-09T13:22:00;21.50;64.80
23560;DHT22;11958;50.836;4.438;2022-09-09T13:24:37;21.10;66.70
23560;DHT22;11958;50.836;4.438;2022-09-09T13:27:17;21.00;68.60
23560;DHT22;11958;50.836;4.438;2022-09-09T13:29:53;21.00;67.80
23560;DHT22;11958;50.836;4.438;2022-09-09T13:32:20;20.90;67.70
23560;DHT22;11958;50.836;4.438;2022-09-09T13:34:54;21.70;68.60
23560;DHT22;11958;50.836;4.438;2022-09-09T13:37:36;21.90;66.10
23560;DHT22;11958;50.836;4.438;2022-09-09T13:40:03;21.70;64.40
23560;DHT22;11958;50.836;4.438;2022-09-09T13:42:33;21.80;64.90
23560;DHT22;11958;50.836;4.438;2022-09-09T13:45:01;21.90;63.70
23560;DHT22;11958;50.836;4.438;2022-09-09T13:47:33;22.00;61.90
23560;DHT22;11958;50.836;4.438;2022-09-09T13:50:20;22.40;59.60
23560;DHT22;11958;50.836;4.438;2022-09-09T13:52:47;22.40;60.50
23560;DHT22;11958;50.836;4.438;2022-09-09T13:55:13;22.80;57.30
23560;DHT22;11958;50.836;4.438;2022-09-09T13:57:38;22.70;58.90
23560;DHT22;11958;50.836;4.438;2022-09-09T14:00:05;22.80;58.10
23560;DHT22;11958;50.836;4.438;2022-09-09T14:02:32;22.70;59.40
23560;DHT22;11958;50.836;4.438;2022-09-09T14:04:58;22.40;61.10
23560;DHT22;11958;50.836;4.438;2022-09-09T14:07:24;22.00;61.80
23560;DHT22;11958;50.836;4.438;2022-09-09T14:09:50;21.70;62.10
23560;DHT22;11958;50.836;4.438;2022-09-09T14:12:17;21.50;63.00
23560;DHT22;11958;50.836;4.438;2022-09-09T14:14:43;21.50;63.80
23560;DHT22;11958;50.836;4.438;2022-09-09T14:17:09;21.50;64.10
23560;DHT22;11958;50.836;4.438;2022-09-09T14:19:35;21.70;63.00
23560;DHT22;11958;50.836;4.438;2022-09-09T14:22:05;21.70;63.40
23560;DHT22;11958;50.836;4.438;2022-09-09T14:24:30;21.40;63.20
23560;DHT22;11958;50.836;4.438;2022-09-09T14:26:56;21.30;65.50
23560;DHT22;11958;50.836;4.438;2022-09-09T14:29:21;21.10;67.30
23560;DHT22;11958;50.836;4.438;2022-09-09T14:31:47;20.90;65.60
23560;DHT22;11958;50.836;4.438;2022-09-09T14:34:16;20.90;66.40
23560;DHT22;11958;50.836;4.438;2022-09-09T14:36:41;20.90;67.30
23560;DHT22;11958;50.836;4.438;2022-09-09T14:39:07;21.00;65.60
23560;DHT22;11958;50.836;4.438;2022-09-09T14:41:33;21.00;66.10
23560;DHT22;11958;50.836;4.438;2022-09-09T14:43:59;21.70;65.10
23560;DHT22;11958;50.836;4.438;2022-09-09T14:46:25;22.00;64.30
23560;DHT22;11958;50.836;4.438;2022-09-09T14:48:52;21.80;63.10
23560;DHT22;11958;50.836;4.438;2022-09-09T14:51:19;21.40;65.10
23560;DHT22;11958;50.836;4.438;2022-09-09T14:53:47;21.40;65.50
23560;DHT22;11958;50.836;4.438;2022-09-09T14:56:16;21.40;65.90
23560;DHT22;11958;50.836;4.438;2022-09-09T14:58:42;21.30;64.10
23560;DHT22;11958;50.836;4.438;2022-09-09T15:01:13;21.40;63.90
23560;DHT22;11958;50.836;4.438;2022-09-09T15:03:39;21.40;62.50
23560;DHT22;11958;50.836;4.438;2022-09-09T15:06:10;21.30;63.10
23560;DHT22;11958;50.836;4.438;2022-09-09T15:08:37;21.20;64.20
23560;DHT22;11958;50.836;4.438;2022-09-09T15:11:04;21.20;63.90
23560;DHT22;11958;50.836;4.438;2022-09-09T15:13:32;21.20;65.20
23560;DHT22;11958;50.836;4.438;2022-09-09T15:16:04;21.30;63.70
23560;DHT22;11958;50.836;4.438;2022-09-09T15:18:34;21.30;61.90
23560;DHT22;11958;50.836;4.438;2022-09-09T15:21:02;21.30;62.50
23560;DHT22;11958;50.836;4.438;2022-09-09T15:23:34;21.30;63.90
23560;DHT22;11958;50.836;4.438;2022-09-09T15:26:00;21.50;63.30
23560;DHT22;11958;50.836;4.438;2022-09-09T15:28:26;21.60;62.20
23560;DHT22;11958;50.836;4.438;2022-09-09T15:30:53;21.60;62.70
23560;DHT22;11958;50.836;4.438;2022-09-09T15:33:20;21.50;62.60
23560;DHT22;11958;50.836;4.438;2022-09-09T15:35:46;21.10;63.20
23560;DHT22;11958;50.836;4.438;2022-09-09T15:38:13;20.70;67.20
23560;DHT22;11958;50.836;4.438;2022-09-09T15:40:39;20.90;65.70
23560;DHT22;11958;50.836;4.438;2022-09-09T15:43:06;20.80;67.40
23560;DHT22;11958;50.836;4.438;2022-09-09T15:45:32;20.50;69.20
23560;DHT22;11958;50.836;4.438;2022-09-09T15:47:59;20.40;69.20
23560;DHT22;11958;50.836;4.438;2022-09-09T15:50:25;20.50;68.80
23560;DHT22;11958;50.836;4.438;2022-09-09T15:52:52;20.40;70.00
23560;DHT22;11958;50.836;4.438;2022-09-09T15:55:19;20.50;69.80
23560;DHT22;11958;50.836;4.438;2022-09-09T15:57:46;20.30;69.20
23560;DHT22;11958;50.836;4.438;2022-09-09T16:00:12;20.40;69.70
23560;DHT22;11958;50.836;4.438;2022-09-09T16:02:39;20.40;69.30
23560;DHT22;11958;50.836;4.438;2022-09-09T16:05:05;20.30;68.90
23560;DHT22;11958;50.836;4.438;2022-09-09T16:07:31;20.70;68.80
23560;DHT22;11958;50.836;4.438;2022-09-09T16:09:57;20.60;68.90
23560;DHT22;11958;50.836;4.438;2022-09-09T16:12:23;21.10;65.50
23560;DHT22;11958;50.836;4.438;2022-09-09T16:14:48;20.90;65.80
23560;DHT22;11958;50.836;4.438;2022-09-09T16:17:14;20.60;67.20
23560;DHT22;11958;50.836;4.438;2022-09-09T16:19:41;20.30;67.90
23560;DHT22;11958;50.836;4.438;2022-09-09T16:22:06;20.20;68.50
23560;DHT22;11958;50.836;4.438;2022-09-09T16:24:32;20.10;69.90
23560;DHT22;11958;50.836;4.438;2022-09-09T16:26:58;20.00;72.00
23560;DHT22;11958;50.836;4.438;2022-09-09T16:29:23;19.80;71.10
23560;DHT22;11958;50.836;4.438;2022-09-09T16:31:53;19.70;72.80
23560;DHT22;11958;50.836;4.438;2022-09-09T16:34:19;19.50;74.30
23560;DHT22;11958;50.836;4.438;2022-09-09T16:36:46;19.00;77.40
23560;DHT22;11958;50.836;4.438;2022-09-09T16:39:14;18.70;80.10
23560;DHT22;11958;50.836;4.438;2022-09-09T16:41:41;18.50;80.90
23560;DHT22;11958;50.836;4.438;2022-09-09T16:44:10;18.50;82.00
23560;DHT22;11958;50.836;4.438;2022-09-09T16:46:38;18.60;82.70
23560;DHT22;11958;50.836;4.438;2022-09-09T16:49:06;18.40;82.80
23560;DHT22;11958;50.836;4.438;2022-09-09T16:51:35;18.40;82.50
23560;DHT22;11958;50.836;4.438;2022-09-09T16:54:03;18.60;82.80
23560;DHT22;11958;50.836;4.438;2022-09-09T16:56:31;18.70;81.90
23560;DHT22;11958;50.836;4.438;2022-09-09T16:59:04;18.70;81.30
23560;DHT22;11958;50.836;4.438;2022-09-09T17:01:32;18.90;81.40
23560;DHT22;11958;50.836;4.438;2022-09-09T17:04:03;18.80;81.40
23560;DHT22;11958;50.836;4.438;2022-09-09T17:06:31;18.80;82.00
23560;DHT22;11958;50.836;4.438;2022-09-09T17:09:02;18.80;80.60
23560;DHT22;11958;50.836;4.438;2022-09-09T17:11:29;18.70;81.10
23560;DHT22;11958;50.836;4.438;2022-09-09T17:13:55;18.70;81.90
23560;DHT22;11958;50.836;4.438;2022-09-09T17:16:23;18.30;82.20
23560;DHT22;11958;50.836;4.438;2022-09-09T17:18:52;18.40;82.60
23560;DHT22;11958;50.836;4.438;2022-09-09T17:21:22;18.40;82.00
23560;DHT22;11958;50.836;4.438;2022-09-09T17:23:49;18.60;81.70
23560;DHT22;11958;50.836;4.438;2022-09-09T17:26:17;18.40;82.20
23560;DHT22;11958;50.836;4.438;2022-09-09T17:28:43;18.20;82.00
23560;DHT22;11958;50.836;4.438;2022-09-09T17:31:17;18.10;83.80
23560;DHT22;11958;50.836;4.438;2022-09-09T17:33:47;18.00;84.40
23560;DHT22;11958;50.836;4.438;2022-09-09T17:36:15;18.00;83.70
23560;DHT22;11958;50.836;4.438;2022-09-09T17:38:41;17.90;83.40
23560;DHT22;11958;50.836;4.438;2022-09-09T17:41:17;17.80;83.90